createdAt,value
2022-08-03T00:01:19.070Z,26.37
2022-08-03T00:04:34.227Z,25.65
2022-08-03T00:07:31.955Z,18.77
2022-08-03T00:10:38.740Z,21.93
2022-08-03T00:13:43.930Z,18.98
2022-08-03T00:16:49.378Z,20.82
2022-08-03T00:19:54.091Z,21.17
2022-08-03T00:22:59.743Z,21.37
2022-08-03T00:26:05.278Z,23.65
2022-08-03T00:29:10.806Z,22.95
2022-08-03T00:32:16.703Z,24.52
2022-08-03T00:35:33.451Z,21.85
2022-08-03T00:38:32.871Z,22.32
2022-08-03T00:41:39.854Z,20.70
2022-08-03T00:44:45.439Z,21.52
2022-08-03T00:47:52.008Z,21.60
2022-08-03T00:50:58.682Z,21.60
2022-08-03T00:54:04.645Z,22.22
2022-08-03T00:57:10.626Z,23.98
2022-08-03T01:00:09.162Z,22.85
2022-08-03T01:03:14.727Z,22.47
2022-08-03T01:06:36.150Z,23.70
2022-08-03T01:10:02.192Z,21.77
2022-08-03T01:14:01.559Z,24.20
2022-08-03T01:16:54.024Z,20.85
2022-08-03T01:20:25.324Z,21.50
2022-08-03T01:23:44.267Z,26.20
2022-08-03T01:27:22.758Z,23.32
2022-08-03T01:30:28.854Z,26.97
2022-08-03T01:33:40.748Z,19.50
2022-08-03T01:36:52.962Z,25.08
2022-08-03T01:39:58.724Z,24.07
2022-08-03T01:43:05.177Z,20.25
2022-08-03T01:46:12.002Z,23.65
2022-08-03T01:49:18.440Z,21.15
2022-08-03T01:52:25.691Z,20.90
2022-08-03T01:55:35.386Z,19.17
2022-08-03T01:58:42.110Z,19.75
2022-08-03T02:02:29.892Z,20.45
2022-08-03T02:04:53.882Z,21.35
2022-08-03T02:07:58.624Z,20.32
2022-08-03T02:11:04.625Z,26.27
2022-08-03T02:14:10.404Z,23.57
2022-08-03T02:17:16.136Z,25.60
2022-08-03T02:20:23.695Z,22.55
2022-08-03T02:23:31.439Z,23.73
2022-08-03T02:26:37.505Z,22.55
2022-08-03T02:29:48.346Z,25.25
2022-08-03T02:36:01.088Z,26.02
2022-08-03T02:39:11.884Z,25.62
2022-08-03T02:42:17.733Z,31.00
2022-08-03T02:45:26.251Z,24.00
2022-08-03T02:48:38.022Z,27.50
2022-08-03T02:51:47.768Z,25.60
2022-08-03T02:54:54.145Z,28.50
2022-08-03T02:58:01.278Z,26.02
2022-08-03T03:01:07.957Z,24.92
2022-08-03T03:04:13.993Z,24.98
2022-08-03T03:07:19.726Z,23.60
2022-08-03T03:10:26.499Z,23.85
2022-08-03T03:13:32.207Z,25.17
2022-08-03T03:16:38.103Z,24.75
2022-08-03T03:19:42.923Z,27.35
2022-08-03T03:22:48.886Z,24.37
2022-08-03T03:25:53.546Z,27.93
2022-08-03T03:28:59.312Z,29.42
2022-08-03T03:32:05.678Z,25.70
2022-08-03T03:35:12.321Z,25.10
2022-08-03T03:38:18.170Z,30.80
2022-08-03T03:41:23.874Z,25.35
2022-08-03T03:44:29.318Z,23.20
2022-08-03T03:47:34.851Z,24.05
2022-08-03T03:50:40.203Z,25.77
2022-08-03T03:53:45.966Z,22.58
2022-08-03T04:06:45.796Z,28.55
2022-08-03T04:10:14.394Z,23.60
2022-08-03T04:13:18.527Z,29.18
2022-08-03T04:16:26.671Z,22.48
2022-08-03T04:19:43.254Z,23.90
2022-08-03T04:22:48.894Z,23.50
2022-08-03T04:25:55.010Z,19.87
2022-08-03T04:29:01.516Z,22.20
2022-08-03T04:32:07.492Z,25.02
2022-08-03T04:35:13.155Z,21.45
2022-08-03T04:38:21.103Z,22.55
2022-08-03T04:41:27.045Z,23.83
2022-08-03T04:44:32.216Z,33.92
2022-08-03T04:47:37.468Z,23.00
2022-08-03T04:50:42.811Z,23.90
2022-08-03T04:53:47.884Z,30.43
2022-08-03T04:56:59.495Z,24.02
2022-08-03T05:00:10.435Z,27.55
2022-08-03T05:03:23.505Z,24.67
2022-08-03T05:06:25.679Z,25.77
2022-08-03T05:09:48.926Z,26.05
2022-08-03T05:12:37.997Z,31.62
2022-08-03T05:15:43.697Z,24.30
2022-08-03T05:18:50.041Z,21.40
2022-08-03T05:21:55.502Z,25.35
2022-08-03T05:25:00.850Z,20.80
2022-08-03T05:28:06.576Z,27.48
2022-08-03T05:31:11.932Z,21.33
2022-08-03T05:34:10.692Z,21.65
2022-08-03T05:37:16.304Z,24.92
2022-08-03T05:40:21.958Z,26.75
2022-08-03T05:43:27.229Z,16.52
2022-08-03T05:46:33.872Z,20.77
2022-08-03T05:49:40.373Z,16.20
2022-08-03T05:52:47.065Z,15.45
2022-08-03T05:55:56.136Z,18.32
2022-08-03T05:59:11.564Z,15.68
2022-08-03T06:02:07.563Z,14.65
2022-08-03T06:05:12.019Z,16.30
2022-08-03T06:08:16.901Z,25.27
2022-08-03T06:11:23.203Z,26.52
2022-08-03T06:14:28.494Z,27.75
2022-08-03T06:17:27.627Z,23.45
2022-08-03T06:20:36.696Z,26.52
2022-08-03T06:23:54.015Z,30.95
2022-08-03T06:26:49.202Z,21.80
2022-08-03T06:29:49.474Z,20.12
2022-08-03T06:32:56.425Z,21.57
2022-08-03T06:36:02.264Z,24.25
2022-08-03T06:39:08.194Z,20.00
2022-08-03T06:42:13.871Z,19.02
2022-08-03T06:45:21.848Z,25.35
2022-08-03T06:48:27.405Z,18.77
2022-08-03T06:52:03.000Z,16.25
2022-08-03T06:54:41.134Z,18.48
2022-08-03T06:57:47.243Z,17.40
2022-08-03T07:00:46.692Z,21.07
2022-08-03T07:03:54.176Z,18.73
2022-08-03T07:07:00.153Z,18.27
2022-08-03T07:10:07.147Z,19.02
2022-08-03T07:13:07.118Z,18.12
2022-08-03T07:16:13.387Z,20.85
2022-08-03T07:19:19.108Z,20.17
2022-08-03T07:22:24.766Z,24.20
2022-08-03T07:25:30.402Z,20.35
2022-08-03T07:28:36.212Z,18.30
2022-08-03T07:31:41.944Z,18.62
2022-08-03T07:34:47.993Z,21.15
2022-08-03T07:37:54.533Z,21.52
2022-08-03T07:41:00.609Z,17.75
2022-08-03T07:44:06.515Z,22.48
2022-08-03T07:47:19.347Z,22.52
2022-08-03T07:50:20.538Z,18.67
2022-08-03T07:53:26.034Z,18.00
2022-08-03T07:56:35.292Z,20.80
2022-08-03T08:02:46.191Z,16.00
2022-08-03T08:05:50.642Z,17.73
2022-08-03T08:08:56.302Z,14.85
2022-08-03T08:12:01.216Z,13.40
2022-08-03T08:15:06.496Z,13.68
2022-08-03T08:18:13.762Z,14.43
2022-08-03T08:21:19.246Z,15.53
2022-08-03T08:24:26.890Z,15.05
2022-08-03T08:28:29.190Z,13.08
2022-08-03T08:30:40.636Z,12.10
2022-08-03T08:34:03.783Z,15.60
2022-08-03T08:36:53.518Z,11.70
2022-08-03T08:39:59.737Z,11.75
2022-08-03T08:43:07.665Z,16.27
2022-08-03T08:46:23.286Z,13.15
2022-08-03T08:49:23.352Z,16.80
2022-08-03T08:52:31.996Z,17.92
2022-08-03T08:55:58.300Z,12.90
2022-08-03T08:58:46.793Z,14.65
2022-08-03T09:01:53.137Z,14.55
2022-08-03T09:05:02.950Z,17.23
2022-08-03T09:08:07.135Z,16.05
2022-08-03T09:11:13.054Z,16.73
2022-08-03T09:14:37.028Z,14.68
2022-08-03T09:17:26.912Z,16.85
2022-08-03T09:20:32.532Z,13.35
2022-08-03T09:23:44.681Z,13.00
2022-08-03T09:26:50.067Z,13.50
2022-08-03T09:29:49.909Z,11.38
2022-08-03T09:32:56.243Z,12.00
2022-08-03T09:36:04.157Z,12.65
2022-08-03T09:39:40.467Z,11.50
2022-08-03T09:42:24.252Z,11.03
2022-08-03T09:45:41.308Z,9.23
2022-08-03T09:48:40.837Z,10.30
2022-08-03T09:54:52.526Z,11.38
2022-08-03T09:57:59.097Z,10.63
2022-08-03T10:01:24.160Z,9.88
2022-08-03T10:04:29.927Z,8.08
2022-08-03T10:07:34.549Z,7.53
2022-08-03T10:10:35.863Z,8.60
2022-08-03T10:13:41.813Z,10.48
2022-08-03T10:16:53.178Z,9.33
2022-08-03T10:19:58.784Z,19.52
2022-08-03T10:23:07.110Z,8.10
2022-08-03T10:26:16.698Z,8.48
2022-08-03T10:29:26.513Z,7.40
2022-08-03T10:32:53.604Z,8.05
2022-08-03T10:35:58.651Z,7.05
2022-08-03T10:39:16.375Z,10.23
2022-08-03T10:42:16.375Z,8.30
2022-08-03T10:45:33.719Z,5.85
2022-08-03T10:48:39.090Z,7.28
2022-08-03T10:51:40.938Z,8.65
2022-08-03T10:55:15.783Z,6.00
2022-08-03T10:58:30.283Z,5.97
2022-08-03T11:01:32.244Z,6.67
2022-08-03T11:04:36.556Z,5.95
2022-08-03T11:07:41.930Z,5.70
2022-08-03T11:10:47.354Z,5.25
2022-08-03T11:13:53.142Z,6.03
2022-08-03T11:17:02.042Z,6.08
2022-08-03T11:20:09.067Z,10.18
2022-08-03T11:23:14.747Z,6.40
2022-08-03T11:26:31.463Z,7.05
2022-08-03T11:29:40.257Z,6.10
2022-08-03T11:32:59.462Z,6.80
2022-08-03T11:36:32.562Z,4.93
2022-08-03T11:39:30.047Z,4.22
2022-08-03T11:42:43.563Z,4.47
2022-08-03T11:45:50.816Z,7.53
2022-08-03T11:49:06.513Z,4.50
2022-08-03T11:52:09.966Z,4.25
2022-08-03T11:55:15.840Z,6.70
2022-08-03T11:59:01.813Z,4.47
2022-08-03T12:01:28.252Z,3.95
2022-08-03T12:04:33.976Z,3.62
2022-08-03T12:08:03.046Z,3.02
2022-08-03T12:10:46.277Z,2.60
2022-08-03T12:14:46.317Z,4.33
2022-08-03T12:37:22.852Z,4.65
2022-08-03T12:40:22.177Z,3.22
2022-08-03T12:46:05.802Z,2.42
2022-08-03T12:49:26.856Z,2.58
2022-08-03T12:52:34.673Z,4.22
2022-08-03T12:55:57.285Z,2.58
2022-08-03T12:58:49.946Z,2.90
2022-08-03T13:01:56.177Z,3.20
2022-08-03T13:05:02.375Z,2.90
2022-08-03T13:08:08.418Z,2.72
2022-08-03T13:12:00.964Z,3.55
2022-08-03T13:14:42.712Z,1.77
2022-08-03T13:17:50.308Z,1.67
2022-08-03T13:20:57.807Z,1.55
2022-08-03T13:24:03.392Z,2.08
2022-08-03T13:28:09.863Z,2.25
2022-08-03T13:30:30.122Z,1.60
2022-08-03T13:33:25.454Z,1.70
2022-08-03T13:36:42.745Z,1.90
2022-08-03T13:39:57.882Z,2.02
2022-08-03T13:42:40.600Z,2.40
2022-08-03T13:45:50.380Z,1.57
2022-08-03T13:56:12.443Z,3.25
2022-08-03T13:59:18.606Z,2.35
2022-08-03T14:02:24.265Z,2.42
2022-08-03T14:05:30.164Z,3.00
2022-08-03T14:08:37.782Z,2.35
2022-08-03T14:12:08.379Z,1.40
2022-08-03T14:14:49.898Z,2.62
2022-08-03T14:17:56.366Z,1.77
2022-08-03T14:20:59.620Z,1.50
2022-08-03T14:24:04.784Z,2.12
2022-08-03T14:27:10.737Z,1.30
2022-08-03T14:30:16.227Z,2.17
2022-08-03T14:33:23.203Z,2.17
2022-08-03T14:36:29.277Z,3.10
2022-08-03T14:42:42.048Z,1.55
2022-08-03T14:45:47.842Z,1.15
2022-08-03T14:50:29.229Z,1.40
2022-08-03T14:51:54.196Z,1.25
2022-08-03T14:55:01.024Z,4.70
2022-08-03T14:58:19.766Z,1.32
2022-08-03T15:02:06.488Z,3.05
2022-08-03T15:04:22.311Z,1.22
2022-08-03T15:07:29.653Z,1.80
2022-08-03T15:10:44.605Z,2.52
2022-08-03T15:13:32.662Z,1.27
2022-08-03T15:16:39.340Z,3.98
2022-08-03T15:20:00.474Z,5.45
2022-08-03T15:22:56.783Z,2.72
2022-08-03T15:26:30.553Z,1.85
2022-08-03T15:29:10.806Z,1.98
2022-08-03T15:32:18.210Z,3.67
2022-08-03T15:35:23.874Z,7.65
2022-08-03T15:38:32.566Z,1.60
2022-08-03T15:41:37.851Z,1.85
2022-08-03T15:44:43.956Z,1.30
2022-08-03T15:47:49.400Z,1.50
2022-08-03T15:50:55.273Z,2.90
2022-08-03T15:54:01.310Z,2.47
2022-08-03T15:57:06.886Z,1.27
2022-08-03T16:00:12.393Z,2.70
2022-08-03T16:03:18.510Z,2.17
2022-08-03T16:06:29.617Z,4.80
2022-08-03T16:09:42.098Z,1.50
2022-08-03T16:12:39.511Z,5.72
2022-08-03T16:15:46.226Z,5.97
2022-08-03T16:18:52.620Z,7.30
2022-08-03T16:22:00.207Z,4.28
2022-08-03T16:25:13.974Z,3.80
2022-08-03T16:28:16.384Z,2.77
2022-08-03T16:31:21.618Z,4.28
2022-08-03T16:34:27.139Z,2.27
2022-08-03T16:37:38.644Z,2.52
2022-08-03T16:40:40.143Z,8.70
2022-08-03T16:43:45.870Z,2.77
2022-08-03T16:46:52.693Z,3.00
2022-08-03T16:49:56.284Z,6.95
2022-08-03T16:53:01.486Z,5.97
2022-08-03T16:56:10.868Z,4.45
2022-08-03T16:59:17.204Z,5.95
2022-08-03T17:02:26.210Z,9.70
2022-08-03T17:05:43.705Z,4.20
2022-08-03T17:08:37.274Z,5.00
2022-08-03T17:11:47.175Z,9.78
2022-08-03T17:14:52.030Z,9.35
2022-08-03T17:18:04.850Z,7.17
2022-08-03T17:21:10.494Z,6.22
2022-08-03T17:24:28.749Z,4.90
2022-08-03T17:28:49.150Z,4.05
2022-08-03T17:31:23.058Z,4.05
2022-08-03T17:34:14.581Z,2.58
2022-08-03T17:37:50.692Z,3.80
2022-08-03T17:40:27.535Z,3.45
2022-08-03T17:44:13.420Z,5.40
2022-08-03T17:46:42.000Z,5.62
2022-08-03T17:49:50.531Z,2.98
2022-08-03T17:52:57.038Z,7.15
2022-08-03T17:56:44.372Z,5.17
2022-08-03T17:59:51.472Z,7.78
2022-08-03T18:03:22.722Z,4.37
2022-08-03T18:06:29.866Z,4.78
2022-08-03T18:10:06.181Z,4.50
2022-08-03T18:12:43.591Z,4.92
2022-08-03T18:15:54.375Z,6.17
2022-08-03T18:22:09.980Z,4.90
2022-08-03T18:25:16.033Z,8.58
2022-08-03T18:28:23.397Z,7.42
2022-08-03T18:32:03.806Z,4.40
2022-08-03T18:34:41.092Z,8.95
2022-08-03T18:37:51.972Z,6.47
2022-08-03T18:44:06.857Z,4.00
2022-08-03T18:47:17.834Z,5.20
2022-08-03T18:50:49.841Z,6.33
2022-08-03T18:54:05.880Z,8.33
2022-08-03T18:57:11.849Z,6.00
2022-08-03T19:00:24.372Z,6.67
2022-08-03T19:06:38.545Z,8.90
2022-08-03T19:10:15.750Z,7.75
2022-08-03T19:13:30.956Z,6.70
2022-08-03T19:16:42.835Z,11.68
2022-08-03T19:19:49.573Z,12.82
2022-08-03T19:22:55.201Z,10.65
2022-08-03T19:26:00.936Z,13.93
2022-08-03T19:28:59.453Z,9.43
2022-08-03T19:32:05.697Z,10.60
2022-08-03T19:35:18.973Z,9.68
2022-08-03T19:38:27.515Z,9.43
2022-08-03T19:41:27.101Z,9.25
2022-08-03T19:44:41.260Z,12.47
2022-08-03T19:48:09.735Z,13.48
2022-08-03T19:51:13.419Z,10.68
2022-08-03T19:54:29.714Z,13.93
2022-08-03T19:57:32.109Z,10.43
2022-08-03T20:00:38.241Z,11.68
2022-08-03T20:03:43.872Z,11.45
2022-08-03T20:06:50.498Z,15.98
2022-08-03T20:09:57.365Z,13.13
2022-08-03T20:13:03.401Z,13.48
2022-08-03T20:16:08.941Z,18.12
2022-08-03T20:19:17.689Z,11.45
2022-08-03T20:22:27.750Z,14.07
2022-08-03T20:25:38.366Z,16.97
2022-08-03T20:28:50.390Z,15.43
2022-08-03T20:31:55.104Z,12.55
2022-08-03T20:35:01.378Z,13.43
2022-08-03T20:38:07.768Z,16.60
2022-08-03T20:41:13.483Z,15.25
2022-08-03T20:44:25.580Z,14.73
2022-08-03T20:47:26.682Z,10.72
2022-08-03T20:50:33.807Z,13.43
2022-08-03T20:53:57.092Z,17.12
2022-08-03T20:56:49.828Z,16.35
2022-08-03T20:59:55.166Z,14.18
2022-08-03T21:03:00.906Z,12.53
2022-08-03T21:06:07.246Z,12.60
2022-08-03T21:09:17.996Z,13.40
2022-08-03T21:12:26.967Z,12.10
2022-08-03T21:13:05.062Z,3.95
2022-08-03T21:13:09.523Z,7.45
2022-08-03T21:16:02.623Z,12.03
2022-08-03T21:18:37.377Z,10.53
2022-08-03T21:21:46.637Z,11.10
2022-08-03T21:24:50.366Z,11.25
2022-08-03T21:27:55.346Z,14.73
2022-08-03T21:31:01.718Z,8.93
2022-08-03T21:34:06.817Z,9.43
2022-08-03T21:37:12.038Z,8.63
2022-08-03T21:40:12.892Z,10.55
2022-08-03T21:43:18.722Z,9.13
2022-08-03T21:46:24.422Z,9.08
2022-08-03T21:50:04.559Z,10.08
2022-08-03T21:52:37.392Z,8.65
2022-08-03T21:55:43.952Z,9.53
2022-08-03T21:59:05.411Z,7.67
2022-08-03T22:02:20.025Z,10.80
2022-08-03T22:05:17.225Z,11.53
2022-08-03T22:08:27.349Z,10.95
2022-08-03T22:11:28.065Z,10.72
2022-08-03T22:14:34.825Z,9.60
2022-08-03T22:17:54.796Z,10.08
2022-08-03T22:20:47.494Z,14.23
2022-08-03T22:24:01.238Z,12.23
2022-08-03T22:27:26.810Z,9.13
2022-08-03T22:30:34.173Z,9.63
2022-08-03T22:33:39.775Z,11.00
2022-08-03T22:36:46.354Z,12.07
2022-08-03T22:39:52.635Z,13.00
2022-08-03T22:42:59.429Z,17.92
2022-08-03T22:46:11.557Z,9.68
2022-08-03T22:49:13.058Z,11.85
2022-08-03T22:52:18.714Z,12.37
2022-08-03T22:55:27.175Z,10.78
2022-08-03T22:58:33.751Z,15.72
2022-08-03T23:01:32.184Z,14.40
2022-08-03T23:04:26.024Z,14.60
2022-08-03T23:10:42.585Z,14.75
2022-08-03T23:13:47.940Z,11.50
2022-08-03T23:16:55.367Z,15.43
2022-08-03T23:20:00.998Z,13.45
2022-08-03T23:23:07.771Z,11.30
2022-08-03T23:26:14.661Z,16.55
2022-08-03T23:29:21.740Z,16.07
2022-08-03T23:32:21.128Z,12.00
2022-08-03T23:36:20.090Z,14.28
2022-08-03T23:38:23.336Z,12.75
2022-08-03T23:41:11.526Z,13.43
2022-08-03T23:44:04.338Z,15.50
2022-08-03T23:46:49.825Z,13.60
2022-08-03T23:49:41.973Z,12.00
2022-08-03T23:52:37.376Z,14.63
2022-08-03T23:55:55.776Z,13.53
2022-08-03T23:59:05.984Z,13.35
